Hauptseite
METAR-TAF:

METAR-TAF

Flughäfen :

RAF Shawbury

Shawbury, England

Breite: 52-48N, Länge: 002-40W, Höhe: 76 m

Beobachtung

Neuester Wetterbericht von vor 37 Minuten, um 12:50 UTC
Wind 8 kt aus Südwest
Temperatur 20°C
Luftfeuchtigkeit 49%
Luftdruck 1015 hPa
Sichtweite 10 km oder mehr
Leicht bewölkt in der Höhe von 4000 ft
Aufgelockert bewölkt in der Höhe von 6000 ft

METAR: EGOS 171250Z 23008KT 9999 FEW040 SCT060 20/09 Q1015 BLU NOSIG

Zeit: 14:27 (13:27 UTC)

Prognose

Neuester Wetterbericht von vor 2 Stunden und 40 Minuten, um 10:47 UTC
Gültige Prognose vom 17 um 12 UTC bis 17 um 21 UTC
Wind 6 kt aus West/Südwest
Sichtweite 10 km oder mehr
Leicht bewölkt in der Höhe von 3800 ft
Aufgelockert bewölkt in der Höhe von 4500 ft

TAF: EGOS 171047Z 1712/1721 24006KT 9999 FEW038 SCT045

Wetterbeobachtungen und Prognosen von mehr als 4000 Flughäfen (METAR und TAF Bericht).

Die verfügbaren Stationen werden durch gelbe und rote Markierungen auf der Karte dargestellt.

Führen Sie die Maus auf sie, um den Namen der Station zu sehen.

Darauf klicken, um die Beobachtung von Wetterbeobachtungen und Prognosen zu sehen.

Um die Karte zu ändern : klicken Sie auf den grünen Tasten mit einem schwarzen Kreuz Zum Vergrößern, auf den grünen Button mit einem Gedankenstrich zu verkleinern, oder auf die grünen Pfeile für benachbarte Karten.


METAR-TAF: